Time;durP1;ratioP1;P1;durP2;ratioP2;P2;SDS_P1;SDS_P2;PMS_P1;PMS_P2;Temp;Humidity;BMP_temperature;BMP_pressure;BME280_temperature;BME280_humidity;BME280_pressure;Samples;Min_cycle;Max_cycle;Signal;HPM_P1;HPM_P2
2023/05/09 00:02:10;;;;;;;;;;;;;;;21.52;31.01;98397.41;5074206;28;1024;-75
2023/05/09 00:04:35;;;;;;;;;;;;;;;21.37;31.42;98402.56;5073377;28;1072;-75
2023/05/09 00:07:01;;;;;;;;;;;;;;;21.48;31.14;98391.81;5074515;28;1162;-75
2023/05/09 00:09:26;;;;;;;;;;;;;;;21.77;30.71;98391.25;5057672;28;1180;-75
2023/05/09 00:11:52;;;;;;;;;;;;;;;21.50;31.04;98382.88;5011971;28;1503;-75
2023/05/09 00:14:18;;;;;;;;;;;;;;;21.49;31.16;98375.63;5034634;28;1064;-75
2023/05/09 00:16:44;;;;;;;;;;;;;;;21.37;31.16;98379.91;5018218;28;1130;-75
2023/05/09 00:19:10;;;;;;;;;;;;;;;21.45;31.21;98374.91;5032150;28;1987;-75
2023/05/09 00:21:35;;;;;;;;;;;;;;;21.36;31.10;98377.53;5021697;28;995;-75
2023/05/09 00:24:01;;;;;;;;;;;;;;;21.51;30.88;98378.84;5066481;28;959;-76
2023/05/09 00:26:26;;;;;;;;;;;;;;;22.12;30.48;98384.00;5077334;28;1160;-75
2023/05/09 00:28:52;;;;;;;;;;;;;;;22.02;31.06;98385.00;5094157;28;1028;-75
2023/05/09 00:31:18;;;;;;;;;;;;;;;22.21;30.73;98386.25;5077455;28;987;-76
2023/05/09 00:33:44;;;;;;;;;;;;;;;21.58;31.19;98385.13;5073941;28;1320;-75
2023/05/09 00:36:10;;;;;;;;;;;;;;;21.56;30.91;98392.50;5057116;28;1011;-75
2023/05/09 00:38:35;;;;;;;;;;;;;;;21.69;30.57;98390.59;5073931;28;1987;-75
2023/05/09 00:41:01;;;;;;;;;;;;;;;21.41;31.17;98394.00;5040561;28;1130;-75
2023/05/09 00:43:27;;;;;;;;;;;;;;;21.54;30.93;98390.06;5057351;28;1177;-75
2023/05/09 00:45:52;;;;;;;;;;;;;;;21.41;31.09;98391.97;5040299;28;979;-76
2023/05/09 00:48:18;;;;;;;;;;;;;;;21.39;31.37;98405.75;5040517;28;1117;-76
2023/05/09 00:50:43;;;;;;;;;;;;;;;21.66;30.92;98402.81;5057274;28;1264;-75
2023/05/09 00:53:09;;;;;;;;;;;;;;;21.27;31.83;98409.97;5056825;28;946;-76
2023/05/09 00:55:35;;;;;;;;;;;;;;;21.69;30.83;98396.25;5056948;28;1109;-76
2023/05/09 00:58:02;;;;;;;;;;;;;;;21.74;30.88;98403.44;5040389;28;1975;-76
2023/05/09 01:00:28;;;;;;;;;;;;;;;21.59;31.21;98411.44;5038565;28;1132;-76
2023/05/09 01:02:54;;;;;;;;;;;;;;;21.57;31.10;98408.25;5093476;28;995;-76
2023/05/09 01:05:20;;;;;;;;;;;;;;;21.70;30.71;98414.84;5080032;28;1864;-75
2023/05/09 01:08:03;;;;;;;;;;;;;;;21.25;31.78;98423.00;5097193;28;950;-76
2023/05/09 01:10:44;;;;;;;;;;;;;;;21.58;31.65;98418.31;5097275;28;1709;-76
2023/05/09 01:13:18;;;;;;;;;;;;;;;22.09;30.98;98416.06;5096741;28;1051;-75
2023/05/09 01:15:55;;;;;;;;;;;;;;;22.32;30.49;98421.63;5113864;28;1012;-75
2023/05/09 01:18:44;;;;;;;;;;;;;;;22.26;30.35;98422.56;5080049;28;1976;-77
2023/05/09 01:21:11;;;;;;;;;;;;;;;21.52;31.55;98428.56;5113779;28;921;-75
2023/05/09 01:23:56;;;;;;;;;;;;;;;21.51;31.04;98430.59;5096949;28;1279;-76
2023/05/09 01:26:29;;;;;;;;;;;;;;;21.52;30.66;98423.69;5073285;28;1137;-75
2023/05/09 01:29:00;;;;;;;;;;;;;;;21.40;31.19;98423.53;5033234;28;1044;-75
2023/05/09 01:31:26;;;;;;;;;;;;;;;21.44;31.20;98435.59;5013396;28;991;-75
2023/05/09 01:33:58;;;;;;;;;;;;;;;21.37;31.17;98422.38;4968583;28;908;-75
2023/05/09 01:36:24;;;;;;;;;;;;;;;21.55;31.03;98427.69;4971076;28;1025;-75
2023/05/09 01:38:50;;;;;;;;;;;;;;;21.64;30.85;98416.59;4971235;28;1993;-75
2023/05/09 01:41:15;;;;;;;;;;;;;;;21.45;31.23;98411.69;4955079;28;984;-75
2023/05/09 01:43:41;;;;;;;;;;;;;;;21.44;31.04;98418.59;4955193;28;977;-75
2023/05/09 01:46:07;;;;;;;;;;;;;;;21.40;31.46;98423.53;4954981;28;963;-75
2023/05/09 01:48:32;;;;;;;;;;;;;;;21.40;31.25;98427.19;4971146;28;1145;-75
2023/05/09 01:50:58;;;;;;;;;;;;;;;21.54;31.12;98420.41;4971229;28;1021;-76
2023/05/09 01:53:23;;;;;;;;;;;;;;;22.12;30.63;98420.06;4954895;28;1360;-76
2023/05/09 01:55:49;;;;;;;;;;;;;;;22.42;30.71;98418.97;4971207;28;1039;-76
2023/05/09 01:58:15;;;;;;;;;;;;;;;22.64;30.25;98408.75;4954941;28;1985;-75
2023/05/09 02:00:40;;;;;;;;;;;;;;;22.27;30.49;98413.63;4964712;28;1219;-75
2023/05/09 02:03:06;;;;;;;;;;;;;;;22.14;30.12;98409.91;5026424;28;1334;-75
2023/05/09 02:05:32;;;;;;;;;;;;;;;21.63;31.08;98415.00;5056444;28;1274;-75
2023/05/09 02:07:57;;;;;;;;;;;;;;;21.72;30.82;98405.91;5052846;28;982;-76
2023/05/09 02:10:26;;;;;;;;;;;;;;;21.52;31.26;98403.09;5052948;28;972;-75
2023/05/09 02:12:52;;;;;;;;;;;;;;;21.26;31.86;98411.22;5035756;28;1258;-76
2023/05/09 02:15:17;;;;;;;;;;;;;;;21.20;31.67;98410.13;5069511;28;1383;-76
2023/05/09 02:17:43;;;;;;;;;;;;;;;21.31;31.84;98416.41;5036007;28;1979;-75
2023/05/09 02:20:09;;;;;;;;;;;;;;;21.21;32.14;98411.72;5036253;28;947;-75
2023/05/09 02:22:35;;;;;;;;;;;;;;;21.25;31.84;98411.66;5036239;28;1244;-75
2023/05/09 02:25:03;;;;;;;;;;;;;;;21.48;31.71;98408.00;5052776;28;1084;-75
2023/05/09 02:27:29;;;;;;;;;;;;;;;21.62;31.37;98413.41;5037335;28;1053;-75
2023/05/09 02:29:56;;;;;;;;;;;;;;;21.56;31.26;98415.13;5039757;28;1137;-75
2023/05/09 02:32:22;;;;;;;;;;;;;;;21.30;31.72;98420.47;5040237;28;1008;-75
2023/05/09 02:34:48;;;;;;;;;;;;;;;22.02;31.29;98413.34;5056342;28;1165;-75
2023/05/09 02:37:14;;;;;;;;;;;;;;;22.40;30.43;98410.13;5016489;28;1981;-75
2023/05/09 02:39:39;;;;;;;;;;;;;;;22.25;30.78;98413.28;5016478;28;989;-75
2023/05/09 02:42:06;;;;;;;;;;;;;;;21.72;30.85;98418.03;5016442;28;1022;-76
2023/05/09 02:44:32;;;;;;;;;;;;;;;21.79;30.83;98412.22;5019665;28;1148;-75
2023/05/09 02:46:57;;;;;;;;;;;;;;;21.74;30.74;98409.91;5052809;28;1149;-75
2023/05/09 02:49:23;;;;;;;;;;;;;;;21.44;31.15;98413.72;5068305;28;1461;-75
2023/05/09 02:51:48;;;;;;;;;;;;;;;21.63;31.21;98412.16;5039133;28;1227;-75
2023/05/09 02:54:14;;;;;;;;;;;;;;;21.60;30.91;98415.84;5039193;28;961;-75
2023/05/09 02:56:40;;;;;;;;;;;;;;;21.61;31.13;98411.81;5055882;28;1046;-75
2023/05/09 02:59:06;;;;;;;;;;;;;;;21.40;31.67;98417.88;5039484;28;1974;-75
2023/05/09 03:01:32;;;;;;;;;;;;;;;21.57;31.29;98405.41;5039211;28;1200;-75
2023/05/09 03:03:58;;;;;;;;;;;;;;;21.52;31.31;98420.06;5055850;28;1037;-75
2023/05/09 03:06:23;;;;;;;;;;;;;;;21.45;31.35;98414.53;5055982;28;959;-75
2023/05/09 03:08:49;;;;;;;;;;;;;;;21.47;31.69;98423.41;5038755;28;1130;-76
2023/05/09 03:11:14;;;;;;;;;;;;;;;22.30;30.70;98415.59;5055806;28;1245;-75
2023/05/09 03:13:41;;;;;;;;;;;;;;;22.82;29.82;98417.59;5038492;28;1373;-75
2023/05/09 03:16:06;;;;;;;;;;;;;;;22.31;30.25;98417.19;5005908;28;1314;-75
2023/05/09 03:18:32;;;;;;;;;;;;;;;21.75;30.47;98377.50;5055428;28;1993;-75
2023/05/09 03:20:58;;;;;;;;;;;;;;;21.65;31.01;98423.84;5006198;28;1240;-76
2023/05/09 03:23:24;;;;;;;;;;;;;;;21.59;31.04;98422.75;5021895;28;1197;-75
2023/05/09 03:25:50;;;;;;;;;;;;;;;21.59;31.25;98431.25;5022509;28;1261;-75
2023/05/09 03:28:16;;;;;;;;;;;;;;;21.70;30.89;98431.81;5055339;28;1000;-75
2023/05/09 03:30:42;;;;;;;;;;;;;;;21.54;31.27;98443.06;5038697;28;1573;-75
2023/05/09 03:33:11;;;;;;;;;;;;;;;21.65;31.08;98431.53;5022303;28;1392;-75
2023/05/09 03:35:37;;;;;;;;;;;;;;;21.71;31.06;98441.94;5038618;28;1225;-75
2023/05/09 03:38:02;;;;;;;;;;;;;;;21.68;31.01;98434.31;5017472;28;1914;-76
2023/05/09 03:40:28;;;;;;;;;;;;;;;21.65;31.02;98435.16;5025960;28;1904;-75
2023/05/09 03:43:03;;;;;;;;;;;;;;;21.44;31.44;98435.59;5013771;28;1225;-75
2023/05/09 03:45:29;;;;;;;;;;;;;;;21.48;31.36;98436.31;5051931;28;1094;-76
2023/05/09 03:47:55;;;;;;;;;;;;;;;21.78;31.61;98427.63;5021778;28;1335;-75
2023/05/09 03:50:22;;;;;;;;;;;;;;;21.87;31.42;98435.56;5071573;28;973;-76
2023/05/09 03:52:49;;;;;;;;;;;;;;;22.34;30.96;98436.16;5021709;28;932;-75
2023/05/09 03:55:16;;;;;;;;;;;;;;;21.91;31.11;98435.44;5054952;28;1567;-76
2023/05/09 03:57:42;;;;;;;;;;;;;;;21.47;31.48;98446.06;5051157;28;1910;-75
2023/05/09 04:00:09;;;;;;;;;;;;;;;21.60;31.54;98449.81;5018109;28;1202;-75
2023/05/09 04:02:47;;;;;;;;;;;;;;;21.58;31.40;98452.31;5031083;28;1294;-76
2023/05/09 04:05:23;;;;;;;;;;;;;;;21.69;31.49;98458.56;5013360;28;1143;-75
2023/05/09 04:07:49;;;;;;;;;;;;;;;21.58;31.37;98457.97;5014741;28;1238;-75
2023/05/09 04:10:15;;;;;;;;;;;;;;;21.60;31.29;98449.81;5013561;28;1342;-75
2023/05/09 04:12:41;;;;;;;;;;;;;;;21.84;31.21;98454.19;4998291;28;1262;-76
2023/05/09 04:15:07;;;;;;;;;;;;;;;21.66;31.54;98465.09;5011280;28;1200;-75
2023/05/09 04:17:33;;;;;;;;;;;;;;;21.60;31.48;98461.16;4994935;28;1975;-75
2023/05/09 04:20:00;;;;;;;;;;;;;;;21.37;31.82;98459.16;5011000;28;1439;-75
2023/05/09 04:22:25;;;;;;;;;;;;;;;21.54;31.75;98469.34;4992814;28;948;-75
2023/05/09 04:24:51;;;;;;;;;;;;;;;21.29;31.75;98468.97;5012637;28;1771;-75
2023/05/09 04:27:16;;;;;;;;;;;;;;;21.26;32.17;98476.31;4997818;28;1462;-75
2023/05/09 04:29:42;;;;;;;;;;;;;;;22.31;31.25;98471.06;5014308;28;1270;-75
2023/05/09 04:32:08;;;;;;;;;;;;;;;22.20;31.10;98476.16;4994632;28;1292;-75
2023/05/09 04:34:34;;;;;;;;;;;;;;;22.49;30.54;98481.22;4994441;28;956;-75
2023/05/09 04:37:05;;;;;;;;;;;;;;;21.91;31.31;98486.44;4987187;28;1907;-76
2023/05/09 04:39:31;;;;;;;;;;;;;;;21.81;31.08;98491.09;4990643;28;1499;-76
2023/05/09 04:42:12;;;;;;;;;;;;;;;21.95;30.57;98487.97;4996047;28;1629;-75
2023/05/09 04:44:37;;;;;;;;;;;;;;;21.81;30.67;98494.75;5018143;28;1655;-76
2023/05/09 04:47:03;;;;;;;;;;;;;;;21.54;31.17;98502.53;5045677;28;1598;-75
2023/05/09 04:49:29;;;;;;;;;;;;;;;21.64;31.31;98500.75;5036659;28;1759;-75
2023/05/09 04:51:55;;;;;;;;;;;;;;;21.54;31.26;98502.53;5004237;28;1222;-75
2023/05/09 04:54:21;;;;;;;;;;;;;;;21.55;31.51;98510.63;5036950;28;1586;-75
2023/05/09 04:56:50;;;;;;;;;;;;;;;21.53;31.69;98507.41;4987798;28;1197;-75
2023/05/09 04:59:16;;;;;;;;;;;;;;;21.40;31.83;98508.44;5001017;28;2001;-76
2023/05/09 05:01:42;;;;;;;;;;;;;;;21.49;31.46;98509.50;5016848;28;1372;-75
2023/05/09 05:04:08;;;;;;;;;;;;;;;21.62;31.47;98509.69;5051765;28;1020;-76
2023/05/09 05:06:34;;;;;;;;;;;;;;;22.17;31.43;98516.69;5020379;28;1213;-76
2023/05/09 05:09:00;;;;;;;;;;;;;;;22.40;31.10;98506.53;5037074;28;1459;-75
2023/05/09 05:11:26;;;;;;;;;;;;;;;22.38;31.23;98508.97;5036573;28;1154;-75
2023/05/09 05:13:52;;;;;;;;;;;;;;;21.84;31.68;98510.84;5035991;28;1862;-76
2023/05/09 05:16:18;;;;;;;;;;;;;;;21.90;31.31;98513.19;5042663;28;1771;-75
2023/05/09 05:18:45;;;;;;;;;;;;;;;21.72;31.36;98508.69;5053123;28;1922;-76
2023/05/09 05:21:10;;;;;;;;;;;;;;;21.55;31.63;98510.63;5037098;28;1127;-76
2023/05/09 05:23:36;;;;;;;;;;;;;;;21.36;31.94;98510.56;5036452;28;1209;-76
2023/05/09 05:26:02;;;;;;;;;;;;;;;21.42;32.05;98512.47;5036742;28;1183;-76
2023/05/09 05:28:30;;;;;;;;;;;;;;;21.52;31.56;98510.69;5020470;28;1300;-75
2023/05/09 05:30:55;;;;;;;;;;;;;;;21.32;32.00;98514.25;5035796;28;1402;-76
2023/05/09 05:33:21;;;;;;;;;;;;;;;21.41;32.15;98521.41;5064153;28;1049;-76
2023/05/09 05:35:47;;;;;;;;;;;;;;;21.39;31.94;98518.97;5073994;28;1617;-76
2023/05/09 05:38:12;;;;;;;;;;;;;;;21.34;32.07;98522.28;5075899;28;1995;-76
2023/05/09 05:40:38;;;;;;;;;;;;;;;21.45;31.90;98531.44;5036337;28;1183;-76
2023/05/09 05:43:05;;;;;;;;;;;;;;;21.14;32.08;98527.88;5036189;28;1670;-76
2023/05/09 05:45:32;;;;;;;;;;;;;;;21.90;31.66;98530.19;5036427;28;1191;-75
2023/05/09 05:48:01;;;;;;;;;;;;;;;22.13;31.30;98524.50;5052732;28;1113;-76
2023/05/09 05:50:28;;;;;;;;;;;;;;;22.27;31.37;98520.56;5052878;28;1208;-75
2023/05/09 05:52:54;;;;;;;;;;;;;;;21.84;31.70;98533.53;5036597;28;1110;-76
2023/05/09 05:55:20;;;;;;;;;;;;;;;21.69;31.74;98532.19;5036435;28;1529;-75
2023/05/09 05:57:46;;;;;;;;;;;;;;;21.74;31.15;98523.19;5036390;28;1985;-76
2023/05/09 06:00:14;;;;;;;;;;;;;;;21.64;31.22;98529.84;5036690;28;1186;-75
2023/05/09 06:02:46;;;;;;;;;;;;;;;21.53;31.19;98524.38;5037912;28;1205;-75
2023/05/09 06:05:20;;;;;;;;;;;;;;;21.39;31.84;98535.16;5039910;28;1418;-76
2023/05/09 06:07:45;;;;;;;;;;;;;;;21.54;31.65;98537.31;5023723;28;1683;-76
2023/05/09 06:10:11;;;;;;;;;;;;;;;21.48;31.57;98539.03;5035997;28;1567;-76
2023/05/09 06:12:37;;;;;;;;;;;;;;;21.43;31.64;98531.03;5067832;28;1482;-75
2023/05/09 06:15:06;;;;;;;;;;;;;;;22.24;31.46;98539.25;5078486;28;1207;-75
2023/05/09 06:17:36;;;;;;;;;;;;;;;22.32;31.23;98534.22;5077748;28;1910;-75
2023/05/09 06:20:02;;;;;;;;;;;;;;;22.24;31.58;98527.91;5079102;28;936;-75
2023/05/09 06:22:28;;;;;;;;;;;;;;;22.04;31.40;98536.38;5077729;28;1220;-76
2023/05/09 06:24:53;;;;;;;;;;;;;;;21.72;31.57;98534.16;5078592;28;903;-76
2023/05/09 06:27:19;;;;;;;;;;;;;;;21.57;31.76;98530.78;5076301;28;1256;-75
2023/05/09 06:29:44;;;;;;;;;;;;;;;21.53;31.58;98534.91;5056999;28;1356;-76
2023/05/09 06:32:10;;;;;;;;;;;;;;;21.54;31.82;98539.34;5039778;28;995;-76
2023/05/09 06:34:36;;;;;;;;;;;;;;;21.51;31.65;98538.19;5056399;28;944;-75
2023/05/09 06:37:02;;;;;;;;;;;;;;;21.43;31.79;98541.56;5056441;28;1094;-76
2023/05/09 06:39:27;;;;;;;;;;;;;;;21.44;31.99;98546.00;5039565;28;1977;-75
2023/05/09 06:41:53;;;;;;;;;;;;;;;21.67;31.61;98551.66;5056098;28;1146;-75
2023/05/09 06:44:29;;;;;;;;;;;;;;;21.50;31.97;98555.59;5059151;28;1376;-75
2023/05/09 06:46:54;;;;;;;;;;;;;;;21.45;31.81;98551.25;5039542;28;1206;-76
2023/05/09 06:49:20;;;;;;;;;;;;;;;21.50;31.30;98541.44;5056229;28;1006;-76
2023/05/09 06:51:45;;;;;;;;;;;;;;;21.81;31.61;98545.75;5056331;28;975;-75
2023/05/09 06:54:15;;;;;;;;;;;;;;;22.38;30.98;98537.34;5055983;28;1004;-75
2023/05/09 06:56:41;;;;;;;;;;;;;;;22.51;30.67;98536.25;5039605;28;992;-75
2023/05/09 06:59:07;;;;;;;;;;;;;;;21.94;31.55;98537.38;5059153;28;1976;-75
2023/05/09 07:01:32;;;;;;;;;;;;;;;21.66;31.89;98550.06;5042763;28;1045;-75
2023/05/09 07:03:58;;;;;;;;;;;;;;;21.28;32.05;98538.16;5042803;28;1544;-76
2023/05/09 07:06:24;;;;;;;;;;;;;;;21.41;31.58;98529.88;5079176;28;1004;-75
2023/05/09 07:08:49;;;;;;;;;;;;;;;21.40;31.87;98536.75;5096051;28;1124;-75
2023/05/09 07:11:15;;;;;;;;;;;;;;;21.62;31.67;98538.00;5078829;28;1274;-75
2023/05/09 07:13:41;;;;;;;;;;;;;;;21.65;31.29;98528.63;5095453;28;1004;-76
2023/05/09 07:16:06;;;;;;;;;;;;;;;21.76;31.23;98536.91;5096070;28;1061;-75
2023/05/09 07:18:32;;;;;;;;;;;;;;;21.48;31.74;98541.06;5097310;28;1902;-76
2023/05/09 07:20:57;;;;;;;;;;;;;;;21.57;31.60;98535.66;5099030;28;1147;-75
2023/05/09 07:23:24;;;;;;;;;;;;;;;21.69;31.17;98532.19;5082290;28;1137;-76
2023/05/09 07:25:54;;;;;;;;;;;;;;;21.57;31.42;98532.84;5099107;28;1229;-75
2023/05/09 07:28:20;;;;;;;;;;;;;;;21.64;31.48;98538.34;5098989;28;1065;-75
2023/05/09 07:30:45;;;;;;;;;;;;;;;21.94;31.62;98539.44;5098920;28;1062;-76
2023/05/09 07:33:11;;;;;;;;;;;;;;;22.34;31.26;98541.06;5098918;28;939;-75
2023/05/09 07:35:36;;;;;;;;;;;;;;;22.81;30.48;98531.53;5094621;28;1240;-75
2023/05/09 07:38:02;;;;;;;;;;;;;;;22.04;31.34;98541.25;5080614;28;1902;-76
2023/05/09 07:40:27;;;;;;;;;;;;;;;22.06;30.93;98541.59;5060068;28;2187;-76
2023/05/09 07:42:55;;;;;;;;;;;;;;;21.87;30.98;98542.41;5039539;28;1234;-76
2023/05/09 07:45:21;;;;;;;;;;;;;;;21.63;31.26;98548.09;5043552;28;1706;-75
2023/05/09 07:47:46;;;;;;;;;;;;;;;21.72;30.84;98539.84;5074755;28;2184;-76
2023/05/09 07:50:12;;;;;;;;;;;;;;;21.43;31.50;98542.38;5090555;28;1621;-75
2023/05/09 07:52:37;;;;;;;;;;;;;;;21.35;31.86;98545.75;5069755;28;1789;-75
2023/05/09 07:55:03;;;;;;;;;;;;;;;21.36;31.69;98548.16;5094955;28;1082;-75
2023/05/09 07:57:29;;;;;;;;;;;;;;;21.81;31.83;98544.91;5094920;28;1964;-75
2023/05/09 07:59:54;;;;;;;;;;;;;;;22.46;31.08;98544.47;5037857;28;1140;-75
2023/05/09 08:02:20;;;;;;;;;;;;;;;22.57;30.78;98545.03;5037821;28;939;-75
2023/05/09 08:04:47;;;;;;;;;;;;;;;22.10;31.11;98550.84;5037979;28;1325;-75
2023/05/09 08:07:13;;;;;;;;;;;;;;;22.10;30.91;98545.16;5054274;28;920;-75
2023/05/09 08:09:39;;;;;;;;;;;;;;;21.71;31.36;98551.56;5054363;28;1578;-76
2023/05/09 08:12:04;;;;;;;;;;;;;;;21.49;31.32;98539.84;5070834;28;1172;-75
2023/05/09 08:14:30;;;;;;;;;;;;;;;21.69;31.04;98542.72;5070852;28;960;-75
2023/05/09 08:16:56;;;;;;;;;;;;;;;21.77;31.03;98542.16;5054466;28;952;-76
2023/05/09 08:19:24;;;;;;;;;;;;;;;21.62;31.28;98542.88;5054143;28;1922;-75
2023/05/09 08:21:51;;;;;;;;;;;;;;;21.63;31.49;98536.75;5070727;28;1091;-75
2023/05/09 08:24:17;;;;;;;;;;;;;;;21.51;31.53;98545.88;5054202;28;990;-75
2023/05/09 08:26:43;;;;;;;;;;;;;;;21.35;31.93;98540.06;5054209;28;1017;-75
2023/05/09 08:29:09;;;;;;;;;;;;;;;21.42;31.84;98537.16;5071005;28;1062;-76
2023/05/09 08:31:35;;;;;;;;;;;;;;;21.56;31.33;98545.41;5054653;28;1103;-75
2023/05/09 08:34:00;;;;;;;;;;;;;;;21.51;31.36;98534.56;5071113;28;991;-76
2023/05/09 08:36:26;;;;;;;;;;;;;;;21.60;31.63;98546.09;5073266;28;1018;-75
2023/05/09 08:38:52;;;;;;;;;;;;;;;21.39;32.00;98546.50;5038568;28;1898;-76
2023/05/09 08:41:17;;;;;;;;;;;;;;;21.62;31.27;98542.88;5072281;28;1269;-75
2023/05/09 08:43:43;;;;;;;;;;;;;;;21.58;31.38;98545.75;5056762;28;1382;-75
2023/05/09 08:46:09;;;;;;;;;;;;;;;21.47;31.73;98545.16;5073907;28;1417;-75
2023/05/09 08:48:37;;;;;;;;;;;;;;;21.90;31.50;98544.34;5092031;28;941;-75
2023/05/09 08:51:03;;;;;;;;;;;;;;;22.31;31.04;98549.63;5071948;28;1457;-75
2023/05/09 08:53:29;;;;;;;;;;;;;;;22.61;30.72;98548.59;5050030;28;2070;-75
2023/05/09 08:55:55;;;;;;;;;;;;;;;22.29;31.06;98541.56;5096154;28;1526;-76
2023/05/09 08:58:21;;;;;;;;;;;;;;;21.93;31.58;98540.66;5055212;28;1910;-75
2023/05/09 09:00:47;;;;;;;;;;;;;;;21.83;31.24;98543.25;5071119;28;1572;-75
2023/05/09 09:03:12;;;;;;;;;;;;;;;21.31;32.22;98535.28;5071622;28;1822;-75
2023/05/09 09:05:39;;;;;;;;;;;;;;;21.45;31.69;98539.91;5075191;28;1007;-75
2023/05/09 09:08:06;;;;;;;;;;;;;;;21.73;31.49;98538.59;5055118;28;1805;-76
2023/05/09 09:10:31;;;;;;;;;;;;;;;21.49;31.87;98528.50;5071782;28;1025;-75
2023/05/09 09:12:57;;;;;;;;;;;;;;;21.28;32.18;98527.63;5055766;28;1019;-75
2023/05/09 09:15:24;;;;;;;;;;;;;;;21.38;32.01;98523.03;5071652;28;1357;-75
2023/05/09 09:17:50;;;;;;;;;;;;;;;21.39;31.92;98530.28;5074553;28;1934;-75
2023/05/09 09:20:15;;;;;;;;;;;;;;;21.84;31.36;98521.41;5079046;28;1504;-75
2023/05/09 09:22:41;;;;;;;;;;;;;;;22.14;31.55;98523.25;5054719;28;1005;-76
2023/05/09 09:25:07;;;;;;;;;;;;;;;22.45;31.05;98514.50;5055291;28;938;-75
2023/05/09 09:27:33;;;;;;;;;;;;;;;22.68;30.55;98514.38;5056222;28;1096;-75
2023/05/09 09:30:08;;;;;;;;;;;;;;;22.61;30.48;98517.38;5037197;28;1073;-76
2023/05/09 09:32:34;;;;;;;;;;;;;;;22.10;31.25;98516.84;5054766;28;1043;-76
2023/05/09 09:35:05;;;;;;;;;;;;;;;21.95;31.16;98509.84;5060597;28;1160;-75
2023/05/09 09:37:34;;;;;;;;;;;;;;;21.82;31.06;98516.16;5093810;28;1902;-76
2023/05/09 09:40:00;;;;;;;;;;;;;;;21.68;31.47;98513.59;5079965;28;919;-76
2023/05/09 09:42:25;;;;;;;;;;;;;;;21.72;31.64;98519.22;5095757;28;1047;-76
2023/05/09 09:45:10;;;;;;;;;;;;;;;21.68;31.47;98513.59;5112433;28;929;-75
2023/05/09 09:47:36;;;;;;;;;;;;;;;21.62;31.58;98515.34;5068345;28;1640;-75
2023/05/09 09:50:12;;;;;;;;;;;;;;;21.36;31.86;98511.38;5088342;28;1455;-75
2023/05/09 09:52:43;;;;;;;;;;;;;;;21.35;32.14;98523.91;5097632;28;1680;-75
2023/05/09 09:55:09;;;;;;;;;;;;;;;21.42;31.62;98514.50;5063774;28;1711;-75
2023/05/09 09:57:36;;;;;;;;;;;;;;;21.55;31.79;98515.47;5088136;28;1910;-75
2023/05/09 10:00:02;;;;;;;;;;;;;;;21.42;31.75;98517.31;5077729;28;1443;-76
2023/05/09 10:02:31;;;;;;;;;;;;;;;21.68;31.19;98513.59;5082641;28;1651;-76
2023/05/09 10:05:00;;;;;;;;;;;;;;;22.10;31.15;98512.00;5081563;28;1594;-75
2023/05/09 10:07:26;;;;;;;;;;;;;;;22.36;30.98;98513.06;5077618;28;973;-75
2023/05/09 10:09:51;;;;;;;;;;;;;;;22.50;30.36;98516.84;5075831;28;1745;-76
2023/05/09 10:12:18;;;;;;;;;;;;;;;21.89;31.12;98529.38;5080840;28;1464;-75
2023/05/09 10:14:44;;;;;;;;;;;;;;;21.38;31.94;98527.91;5064837;28;1484;-75
2023/05/09 10:17:10;;;;;;;;;;;;;;;21.71;30.92;98529.75;5043628;28;2101;-75
2023/05/09 10:19:36;;;;;;;;;;;;;;;21.83;30.82;98533.97;5059834;28;1978;-75
2023/05/09 10:22:03;;;;;;;;;;;;;;;21.78;30.93;98525.97;5061276;28;1575;-75
2023/05/09 10:24:38;;;;;;;;;;;;;;;21.55;31.18;98533.28;5072134;28;1673;-76
2023/05/09 10:27:06;;;;;;;;;;;;;;;21.40;31.60;98542.41;5039827;28;1519;-75
2023/05/09 10:29:33;;;;;;;;;;;;;;;21.43;31.65;98535.91;5044304;28;1674;-75
2023/05/09 10:32:01;;;;;;;;;;;;;;;21.55;31.34;98526.78;5055972;28;1521;-75
2023/05/09 10:34:27;;;;;;;;;;;;;;;21.62;31.34;98531.53;5039514;28;1655;-76
2023/05/09 10:36:52;;;;;;;;;;;;;;;21.50;31.41;98527.28;5038084;28;1632;-75
2023/05/09 10:39:18;;;;;;;;;;;;;;;21.53;31.34;98523.59;5040317;28;1910;-75
2023/05/09 10:41:44;;;;;;;;;;;;;;;21.44;31.48;98521.31;5052626;28;2125;-75
2023/05/09 10:44:09;;;;;;;;;;;;;;;21.39;31.67;98533.13;5047825;28;1487;-75
2023/05/09 10:46:35;;;;;;;;;;;;;;;21.40;31.92;98523.44;5056747;28;947;-75
2023/05/09 10:49:01;;;;;;;;;;;;;;;21.49;31.48;98529.31;5051999;28;1529;-76
2023/05/09 10:51:26;;;;;;;;;;;;;;;21.61;31.02;98527.13;5056281;28;917;-76
2023/05/09 10:53:54;;;;;;;;;;;;;;;21.47;31.58;98522.50;5055964;28;1551;-75
2023/05/09 10:56:23;;;;;;;;;;;;;;;21.53;31.37;98529.25;5056131;28;1080;-75
2023/05/09 10:58:49;;;;;;;;;;;;;;;21.55;31.16;98530.44;5039686;28;1918;-75
2023/05/09 11:01:15;;;;;;;;;;;;;;;21.53;31.15;98523.59;5051333;28;1558;-75
2023/05/09 11:03:53;;;;;;;;;;;;;;;21.89;31.11;98528.59;5073519;28;953;-75
2023/05/09 11:06:37;;;;;;;;;;;;;;;22.27;30.88;98524.19;5055964;28;1005;-75
2023/05/09 11:09:24;;;;;;;;;;;;;;;22.59;30.46;98505.69;5039467;28;1056;-75
2023/05/09 11:12:04;;;;;;;;;;;;;;;22.12;30.77;98517.22;5055537;28;1180;-75
2023/05/09 11:14:30;;;;;;;;;;;;;;;21.84;31.04;98527.06;5055242;28;1698;-75
2023/05/09 11:16:56;;;;;;;;;;;;;;;21.89;30.89;98522.94;5039111;28;1719;-75
2023/05/09 11:19:37;;;;;;;;;;;;;;;21.69;31.15;98537.84;5035263;28;1910;-75
2023/05/09 11:22:13;;;;;;;;;;;;;;;21.45;31.59;98539.09;5040970;28;1604;-75
2023/05/09 11:24:39;;;;;;;;;;;;;;;21.45;31.43;98550.41;5049786;28;1562;-76
2023/05/09 11:27:33;;;;;;;;;;;;;;;21.52;31.28;98550.31;5039330;28;1203;-75
2023/05/09 11:30:01;;;;;;;;;;;;;;;21.87;30.59;98539.56;4995046;28;1904;-76
2023/05/09 11:32:29;;;;;;;;;;;;;;;21.65;31.19;98539.94;4963611;28;1779;-75
2023/05/09 11:35:05;;;;;;;;;;;;;;;21.09;31.08;98454.81;4995794;28;1564;-76
2023/05/09 11:37:31;;;;;;;;;;;;;;;21.77;30.89;98545.00;5009174;28;1906;-76
2023/05/09 11:39:57;;;;;;;;;;;;;;;21.90;30.45;98541.53;4984884;28;1326;-75
2023/05/09 11:42:23;;;;;;;;;;;;;;;21.68;30.56;98541.94;4978108;28;1493;-75
2023/05/09 11:44:49;;;;;;;;;;;;;;;21.38;31.51;98530.75;4998065;28;1658;-76
2023/05/09 11:47:15;;;;;;;;;;;;;;;22.20;30.65;98530.00;4995836;28;1670;-76
2023/05/09 11:49:43;;;;;;;;;;;;;;;22.39;30.92;98522.75;5003795;28;1645;-75
2023/05/09 11:52:09;;;;;;;;;;;;;;;22.47;30.74;98534.72;4994342;28;1475;-75
2023/05/09 11:54:37;;;;;;;;;;;;;;;21.73;31.57;98538.59;4995041;28;1304;-75
2023/05/09 11:57:03;;;;;;;;;;;;;;;21.53;31.41;98540.59;4995994;28;929;-75
2023/05/09 11:59:29;;;;;;;;;;;;;;;21.56;31.52;98539.72;5011831;28;1995;-75
2023/05/09 12:01:54;;;;;;;;;;;;;;;21.48;31.40;98541.88;4991785;28;1405;-75
2023/05/09 12:04:20;;;;;;;;;;;;;;;21.42;31.49;98539.97;5012067;28;935;-75
2023/05/09 12:06:46;;;;;;;;;;;;;;;21.52;31.51;98539.78;5048119;28;1021;-76
2023/05/09 12:09:12;;;;;;;;;;;;;;;21.51;31.31;98537.41;5041404;28;1111;-76
2023/05/09 12:11:38;;;;;;;;;;;;;;;21.43;31.57;98538.75;5074641;28;1118;-76
2023/05/09 12:14:04;;;;;;;;;;;;;;;21.43;31.52;98530.25;5074758;28;922;-75
2023/05/09 12:16:29;;;;;;;;;;;;;;;22.32;30.78;98529.34;5060703;28;1113;-75
2023/05/09 12:18:55;;;;;;;;;;;;;;;22.49;30.74;98529.41;5075391;28;1902;-76
2023/05/09 12:21:20;;;;;;;;;;;;;;;22.54;30.40;98523.22;5055633;28;1625;-75
2023/05/09 12:23:46;;;;;;;;;;;;;;;21.82;31.14;98521.03;5057422;28;918;-75
2023/05/09 12:26:11;;;;;;;;;;;;;;;21.52;31.47;98516.34;5089501;28;1183;-76
2023/05/09 12:28:37;;;;;;;;;;;;;;;21.75;31.09;98513.47;5072405;28;983;-75
2023/05/09 12:31:03;;;;;;;;;;;;;;;21.48;31.15;98510.72;5088976;28;975;-76
2023/05/09 12:33:29;;;;;;;;;;;;;;;21.50;31.32;98510.28;5056739;28;936;-76
2023/05/09 12:36:04;;;;;;;;;;;;;;;21.65;31.21;98508.78;5088856;28;1383;-75
2023/05/09 12:38:30;;;;;;;;;;;;;;;21.64;30.95;98507.19;5055347;28;1891;-75
2023/05/09 12:40:59;;;;;;;;;;;;;;;21.63;31.09;98519.78;5072183;28;1282;-76
2023/05/09 12:43:25;;;;;;;;;;;;;;;21.70;31.11;98522.44;5054063;28;1230;-75
2023/05/09 12:45:53;;;;;;;;;;;;;;;21.31;31.44;98529.63;5037557;28;1418;-75
2023/05/09 12:48:22;;;;;;;;;;;;;;;21.43;31.26;98524.59;5037278;28;881;-75
2023/05/09 12:50:47;;;;;;;;;;;;;;;21.27;31.37;98528.84;5054952;28;1404;-75
2023/05/09 12:53:13;;;;;;;;;;;;;;;21.65;30.86;98531.44;5050629;28;1298;-76
2023/05/09 12:55:40;;;;;;;;;;;;;;;21.42;31.28;98528.66;5035435;28;1562;-75
2023/05/09 12:58:05;;;;;;;;;;;;;;;21.47;31.12;98516.84;5017795;28;1981;-75